Tiempo atmosférico en la estación meteorológica de Salvacañete, Cuenca (1160 m.)



Fecha
DESCASC
Temp. máxima en grados centígrados (hora)
DESCASC
Temp. mínima en grados centígrados (hora)
DESCASC
Temp. media en grados centígrados
DESCASC
Racha de viento máxima en m/sg (hora)
DESCASC
Velocidad máxima media en intervalos de 10 minutos(hora)
DESCASC
Precipitaciones diarias en mm
DESCASC
Precipitaciones de 00:00 a 06:00 en mm
DESCASC
Precipitaciones de 06:00 a 12:00 en mm
DESCASC
Precipitaciones de 12:00 a 18:00 en mm
DESCASC
Precipitaciones de 18:00 a 24:00 en mm
DESCASC
22-08-2019 27.3 (14:50) 9.9 (08:00) 18.6 8.33 (14:20) 3.61 (18:00) 0 0 0 0 0
21-08-2019 21.2 (17:00) 12.9 (23:20) 17.1 8.89 (19:50) 4.17 (20:00) 4.6 0 0 0 4.6
20-08-2019 25.9 (15:30) 16.1 (23:50) 21 9.17 (16:00) 5.83 (15:00) 0 0 0 0 0
19-08-2019 32 (16:30) 9.8 (07:50) 20.9 10.56 (18:10) 4.72 (19:00) 0 0 0 0 0
18-08-2019 33.7 (15:50) 12 (00:00) 22.9 12.22 (13:50) 6.94 (16:40) 0 0 0 0 0
17-08-2019 34.3 (16:50) 12.8 (00:00) 23.5 12.22 (13:30) 5.28 (16:00) 0 0 0 0 0
16-08-2019 33.4 (15:50) 12.9 (00:00) 23.2 10.83 (16:20) 5.83 (17:30) 0 0 0 0 0
15-08-2019 33.4 (15:50) 10.4 (00:00) 21.9 9.72 (14:50) 5 (14:50) 0 0 0 0 0
14-08-2019 32.1 (17:00) 10.3 (00:00) 21.2 8.89 (12:50) 4.44 (13:20) 0 0 0 0 0
13-08-2019 26.4 (17:20) 12.3 (00:00) 19.3 8.33 (17:10) 5 (17:10) 0 0 0 0 0
12-08-2019 26.2 (18:00) 10.2 (00:00) 18.2 9.72 (20:30) 5.28 (20:30) 0 0 0 0 0
11-08-2019 30 (15:40) 12.8 (00:00) 21.4 11.67 (16:40) 7.22 (16:40) 0 0 0 0 0
10-08-2019 32.2 (15:40) 12 (00:00) 22.1 12.5 (16:10) 6.39 (14:00) 0 0 0 0 0
09-08-2019 32.6 (15:50) 10.8 (00:00) 21.7 11.94 (14:30) 6.94 (16:40) 0 0 0 0 0
08-08-2019 32.5 (16:50) 11.8 (00:00) 22.2 11.67 (16:30) 5.83 (16:50) 0 0 0 0 0
07-08-2019 31.2 (16:00) 9.6 (00:00) 20.4 12.22 (20:10) 6.11 (20:10) 0 0 0 0 0
06-08-2019 34.3 (16:10) 12.4 (00:00) 23.3 13.33 (15:20) 5.83 (18:10) 0 0 0 0 0
05-08-2019 34.6 (16:40) 11.9 (00:00) 23.2 11.67 (17:10) 6.94 (17:10) 0 0 0 0 0
04-08-2019 34.1 (16:30) 13 (00:00) 23.5 11.67 (16:40) 6.94 (17:10) 0 0 0 0 0
03-08-2019 33.8 (17:40) 11.7 (00:00) 22.7 12.22 (17:20) 6.39 (17:20) 0 0 0 0 0
02-08-2019 33.5 (16:20) 11.1 (00:00) 22.3 9.72 (14:50) 5.28 (15:30) 0 0 0 0 0
01-08-2019 32.4 (17:10) 10.8 (00:00) 21.6 11.67 (16:10) 5 (18:30) 0 0 0 0 0
31-07-2019 25.9 (15:00) 10.9 (00:00) 18.4 11.94 (13:20) 5.83 (14:20) 0 0 0 0 0
30-07-2019 31.4 (16:50) 11 (00:00) 21.2 11.67 (15:50) 5.83 (16:30) 0 0 0 0 0
29-07-2019 30.9 (16:40) 8.2 (00:00) 19.5 11.39 (11:40) 5.28 (13:50) 0 0 0 0 0
28-07-2019 29.2 (17:50) 9.1 (00:00) 19.2 9.72 (15:40) 5.56 (15:40) 0 0 0 0 0
27-07-2019 26.4 (16:10) 8.6 (00:00) 17.5 13.89 (18:50) 7.5 (18:20) 0 0 0 0 0
26-07-2019 30.6 (17:00) 13.6 (00:00) 22.1 15 (15:00) 6.67 (16:10) 0 0 0 0 0

Gráficas

Temp. máximas Temp. mínimas Temp. medias Precipitaciones Rachas de viento máximas Velocidades máximas media en intervalos de 10 minutos

Datos horarios

Fecha y hora oficial Temperatura (ºC) Velocidad del viento (km/h) Dirección del viento Racha (km/h) Dirección de racha Precipitación (mm) Presión (hPa) Tendencia (hPa) Humedad (%)
2019-08-24 23:00:00 19.1 9 Este 15 Este 0 -- -- 65
2019-08-24 22:00:00 19.9 4 Este 18 Este 0 -- -- 61
2019-08-24 21:00:00 22 12 Este 22 Este 0 -- -- 53
2019-08-24 20:00:00 24.6 7 Sudeste 24 Este 0 -- -- 43
2019-08-24 19:00:00 27.2 10 Sudoeste 27 Sudeste 0 -- -- 34
2019-08-24 18:00:00 28.3 8 Este 26 Este 0 -- -- 24
2019-08-24 17:00:00 28.9 10 Sudeste 28 Este 0 -- -- 23
2019-08-24 16:00:00 29.8 13 Este 31 Este 0 -- -- 22
2019-08-24 15:00:00 29.4 8 Este 33 Este 0 -- -- 24
2019-08-24 14:00:00 28 12 Este 30 Este 0 -- -- 28
2019-08-24 13:00:00 27.3 10 Sudeste 27 Este 0 -- -- 29
2019-08-24 12:00:00 26.4 10 Este 18 Este 0 -- -- 34
2019-08-24 11:00:00 22.8 3 Oeste 8 Oeste 0 -- -- 40
2019-08-24 10:00:00 17.4 0 Calma 4 Sudoeste 0 -- -- 56
2019-08-24 09:00:00 13 0 Calma 3 Este 0 -- -- 71
2019-08-24 08:00:00 8.2 2 Este 5 Este 0 -- -- 83
2019-08-24 07:00:00 8.3 3 Este 5 Este 0 -- -- 83
2019-08-24 06:00:00 8.7 3 Este 6 Este 0 -- -- 82
2019-08-24 05:00:00 9.3 3 Este 6 Este 0 -- -- 81
2019-08-24 04:00:00 10 3 Este 6 Este 0 -- -- 79
2019-08-24 03:00:00 10.9 4 Este 5 Este 0 -- -- 76
2019-08-24 02:00:00 12.1 0 Calma 4 Este 0 -- -- 71
2019-08-24 01:00:00 13.4 0 Calma 3 Oeste 0 -- -- 67
2019-08-24 00:00:00 15.3 0 Calma 4 Este 0 -- -- 61
2019-08-23 23:00:00 17.7 2 Este 15 Nordeste 0 -- -- 54
2019-08-23 22:00:00 19.7 6 Este 15 Este 0 -- -- 49
2019-08-23 21:00:00 22.6 7 Sudeste 20 Sudeste 0 -- -- 40
2019-08-23 20:00:00 25.4 10 Sudeste 21 Este 0 -- -- 27
2019-08-23 19:00:00 27.2 8 Este 21 Este 0 -- -- 23
2019-08-23 18:00:00 27.8 12 Sudeste 29 Este 0 -- -- 22
2019-08-23 17:00:00 28.8 10 Sudoeste 19 Sudoeste 0 -- -- 23
2019-08-23 16:00:00 28.3 9 Este 21 Nordeste 0 -- -- 24
2019-08-23 15:00:00 27.8 8 Oeste 22 Este 0 -- -- 25
2019-08-23 14:00:00 26.4 5 Este 22 Este 0 -- -- 28
2019-08-23 13:00:00 25.4 8 Este 22 Sudeste 0 -- -- 33
2019-08-23 12:00:00 24.3 7 Oeste 19 Sudoeste 0 -- -- 34
2019-08-23 11:00:00 22 3 Sudeste 6 Noroeste 0 -- -- 40
2019-08-23 10:00:00 17.1 0 Calma 3 Oeste 0 -- -- 62
2019-08-23 09:00:00 12.5 0 Calma 5 Nordeste 0 -- -- 80
2019-08-23 08:00:00 8.6 3 Este 5 Este 0 -- -- 89
2019-08-23 07:00:00 8.8 0 Calma 4 Este 0 -- -- 89
2019-08-23 06:00:00 9.4 3 Este 5 Este 0 -- -- 88
2019-08-23 05:00:00 9.9 0 Calma 4 Este 0 -- -- 86
2019-08-23 04:00:00 10.7 2 Este 5 Este 0 -- -- 84
2019-08-23 03:00:00 11.5 0 Calma 4 Este 0 -- -- 83
2019-08-23 02:00:00 12.5 0 Calma 3 Oeste 0 -- -- 81
2019-08-23 01:00:00 13.7 2 Este 5 Noroeste 0 -- -- 76
2019-08-23 00:00:00 15.2 0 Calma 6 Sudeste 0 -- -- 70
2019-08-22 23:00:00 17.2 3 Este 13 Este 0 -- -- 64
2019-08-22 22:00:00 19 5 Este 12 Este 0 -- -- 59
2019-08-22 21:00:00 21.7 4 Este 14 Este 0 -- -- 52
2019-08-22 20:00:00 24.8 8 Sudeste 18 Sudoeste 0 -- -- 44
2019-08-22 19:00:00 26.7 8 Este 20 Este 0 -- -- 35
2019-08-22 18:00:00 27 13 Este 26 Este 0 -- -- 33
2019-08-22 17:00:00 26.6 10 Este 30 Este 0 -- -- 36
2019-08-22 16:00:00 26.7 8 Sudeste 23 Sudeste 0 -- -- 37
2019-08-22 15:00:00 27.2 7 Este 30 Este 0 -- -- 33
2019-08-22 14:00:00 25.7 10 Este 15 Sudeste 0 -- -- 39
2019-08-22 13:00:00 25.1 6 Sudoeste 13 Sudoeste 0 -- -- 39
2019-08-22 12:00:00 22.8 3 Sudeste 9 Sudoeste 0 -- -- 49
2019-08-22 11:00:00 20.5 3 Sudoeste 7 Noroeste 0 -- -- 63
2019-08-22 10:00:00 17.6 0 Calma 4 Este 0 -- -- 75
2019-08-22 09:00:00 13.2 0 Calma 3 Oeste 0 -- -- 92
2019-08-22 08:00:00 9.9 2 Este 5 Este 0 -- -- 94
2019-08-22 07:00:00 10.5 2 Este 9 Este 0 -- -- 94
2019-08-22 06:00:00 10.6 4 Este 8 Este 0 -- -- 93
2019-08-22 05:00:00 10.6 3 Nordeste 9 Nordeste 0 -- -- 94
2019-08-22 04:00:00 10.3 4 Este 9 Este 0 -- -- 93
2019-08-22 03:00:00 10.7 0 Calma 10 Sudeste 0 -- -- 91
2019-08-22 02:00:00 11.5 2 Este 10 Sudeste 0 -- -- 90
2019-08-22 01:00:00 12.8 3 Nordeste 8 Este 0 -- -- 88
2019-08-22 00:00:00 13.2 4 Sudeste 10 Nordeste 0 -- -- 88
2019-08-21 23:00:00 13 0 Calma 7 Sudeste 0 -- -- 89
2019-08-21 22:00:00 13.6 0 Calma 14 Nordeste 0 -- -- 85
2019-08-21 21:00:00 14.3 11 Nordeste 21 Sudeste 0 -- -- 80
2019-08-21 20:00:00 15.6 15 Este 32 Este 3.2 -- -- 76
2019-08-21 19:00:00 19.8 7 Oeste 15 Sudoeste 1.4 -- -- 73
2019-08-21 18:00:00 20.9 8 Sudoeste 18 Sur 0 -- -- 66
2019-08-21 17:00:00 21.2 4 Sudoeste 22 Sudeste 0 -- -- 63
2019-08-21 16:00:00 19.2 8 Sudoeste 20 Sudoeste 0 -- -- 75
2019-08-21 15:00:00 19.8 9 Sudoeste 21 Sur 0 -- -- 74
2019-08-21 14:00:00 19.4 5 Sudoeste 15 Sudoeste 0 -- -- 76
2019-08-21 13:00:00 18.9 8 Sudoeste 14 Sudoeste 0 -- -- 79
2019-08-21 12:00:00 17.8 4 Sudoeste 21 Este 0 -- -- 83
2019-08-21 11:00:00 16.8 14 Este 27 Este 0 -- -- 86
2019-08-21 10:00:00 16.2 11 Este 23 Este 0 -- -- 87
2019-08-21 09:00:00 15.9 13 Este 23 Este 0 -- -- 90
2019-08-21 08:00:00 16.5 11 Este 19 Este 0 -- -- 86
2019-08-21 07:00:00 16.5 0 Calma 10 Este 0 -- -- 83
2019-08-21 06:00:00 16.2 4 Este 11 Nordeste 0 -- -- 84
2019-08-21 05:00:00 15.8 10 Este 19 Este 0 -- -- 84
2019-08-21 04:00:00 16.1 7 Este 18 Este 0 -- -- 81
2019-08-21 03:00:00 16.6 10 Este 21 Este 0 -- -- 80
2019-08-21 02:00:00 16.7 10 Este 17 Este 0 -- -- 75
2019-08-21 01:00:00 16.6 12 Este 19 Este 0 -- -- 75
2019-08-21 00:00:00 16.2 0 Calma 16 Nordeste 0 -- -- 79
2019-08-20 23:00:00 16.4 9 Este 24 Este 0 -- -- 80
2019-08-20 22:00:00 17.1 12 Este 27 Este 0 -- -- 78
2019-08-20 21:00:00 18 17 Este 30 Este 0 -- -- 79
2019-08-20 20:00:00 19.1 17 Este 31 Este 0 -- -- 77
2019-08-20 19:00:00 21.4 14 Este 33 Este 0 -- -- 59
2019-08-20 18:00:00 22.1 16 Este 30 Este 0 -- -- 62
2019-08-20 17:00:00 23.1 14 Este 32 Este 0 -- -- 55
2019-08-20 16:00:00 23.6 17 Este 33 Este 0 -- -- 54
2019-08-20 15:00:00 25.1 21 Este 32 Este 0 -- -- 52
2019-08-20 14:00:00 23.9 13 Este 28 Este 0 -- -- 56
2019-08-20 13:00:00 22.9 17 Este 26 Este 0 -- -- 59
2019-08-20 12:00:00 20.7 14 Este 22 Este 0 -- -- 69
2019-08-20 11:00:00 19.9 9 Este 21 Este 0 -- -- 74
2019-08-20 10:00:00 19.5 11 Este 19 Este 0 -- -- 77
2019-08-20 09:00:00 18.9 8 Este 13 Este 0 -- -- 79
2019-08-20 08:00:00 18.2 3 Este 11 Este 0 -- -- 81
2019-08-20 07:00:00 18.3 6 Este 13 Este 0 -- -- 80
2019-08-20 06:00:00 18.6 6 Este 12 Este 0 -- -- 79
2019-08-20 05:00:00 18.6 4 Este 11 Este 0 -- -- 80
2019-08-20 04:00:00 19.3 5 Este 14 Este 0 -- -- 78
2019-08-20 03:00:00 19.6 5 Sudeste 15 Este 0 -- -- 78
2019-08-20 02:00:00 19.7 6 Este 26 Este 0 -- -- 79
2019-08-20 01:00:00 19.7 16 Este 32 Este 0 -- -- 79
2019-08-20 00:00:00 20.3 11 Este 31 Este 0 -- -- 78
2019-08-19 23:00:00 20.6 14 Este 26 Nordeste 0 -- -- 79
2019-08-19 22:00:00 21.1 10 Este 22 Este 0 -- -- 77
2019-08-19 21:00:00 22.7 13 Este 28 Este 0 -- -- 70
2019-08-19 20:00:00 25.6 13 Este 38 Este 0 -- -- 57
2019-08-19 19:00:00 28 17 Este 38 Oeste 0 -- -- 48
2019-08-19 18:00:00 31.5 10 Sudoeste 29 Oeste 0 -- -- 20
2019-08-19 17:00:00 31.2 9 Sudoeste 32 Sudoeste 0 -- -- 22
2019-08-19 16:00:00 31.1 9 Sur 36 Sudoeste 0 -- -- 21
2019-08-19 15:00:00 30.7 7 Sudeste 29 Sur 0 -- -- 26
2019-08-19 14:00:00 29.5 13 Sudeste 33 Oeste 0 -- -- 26
2019-08-19 13:00:00 29.5 8 Sur 32 Oeste 0 -- -- 26
2019-08-19 12:00:00 28.7 12 Oeste 27 Oeste 0 -- -- 26
2019-08-19 11:00:00 26.1 9 Sur 18 Sur 0 -- -- 31
2019-08-19 10:00:00 20.1 2 Sudoeste 6 Oeste 0 -- -- 40
2019-08-19 09:00:00 14.6 0 Calma 4 Este 0 -- -- 51
2019-08-19 08:00:00 9.9 3 Este 5 Este 0 -- -- 64
2019-08-19 07:00:00 10.1 3 Este 5 Este 0 -- -- 62
2019-08-19 06:00:00 10.7 2 Este 5 Este 0 -- -- 61
2019-08-19 05:00:00 11.5 3 Este -- -- 0 -- -- 58
2019-08-19 04:00:00 12.5 2 Este 6 Este 0 -- -- 55
2019-08-19 03:00:00 13 3 Este 6 Este 0 -- -- 54
2019-08-19 02:00:00 14.3 2 Este 5 Nordeste 0 -- -- 50
2019-08-19 01:00:00 15.7 0 Calma 5 Oeste 0 -- -- 46
2019-08-19 00:00:00 17.9 0 Calma 6 Este 0 -- -- 41
2019-08-18 23:00:00 19.8 5 Este 8 Este 0 -- -- 37
2019-08-18 22:00:00 24.7 0 Calma 17 Oeste 0 -- -- 29
2019-08-18 21:00:00 28.4 10 Oeste 24 Oeste 0 -- -- 23
2019-08-18 20:00:00 30.8 13 Sudoeste 35 Oeste 0 -- -- 21
2019-08-18 19:00:00 31.1 15 Oeste 36 Sudoeste 0 -- -- 20
2019-08-18 18:00:00 32.6 16 Oeste 35 Oeste 0 -- -- 18
2019-08-18 17:00:00 33.7 21 Oeste 41 Oeste 0 -- -- 19
2019-08-18 16:00:00 33.7 18 Oeste 43 Oeste 0 -- -- 19
2019-08-18 15:00:00 33.1 18 Oeste 41 Oeste 0 -- -- 21
2019-08-18 14:00:00 32.6 22 Oeste 44 Oeste 0 -- -- 20
2019-08-18 13:00:00 32.4 17 Oeste 34 Oeste 0 -- -- 23
2019-08-18 12:00:00 30.3 17 Oeste 34 Oeste 0 -- -- 27
2019-08-18 11:00:00 27.2 4 Oeste 12 Sudoeste 0 -- -- 38
2019-08-18 10:00:00 21.3 2 Sur 3 Sudeste 0 -- -- 60
2019-08-18 09:00:00 16.3 3 Oeste 6 Oeste 0 -- -- 75
2019-08-18 08:00:00 12 2 Este 5 Este 0 -- -- 84
2019-08-18 07:00:00 12.4 2 Este 5 Este 0 -- -- 83
2019-08-18 06:00:00 13.3 2 Este 7 Nordeste 0 -- -- 81
2019-08-18 05:00:00 14 3 Este 5 Este 0 -- -- 78
2019-08-18 04:00:00 15.1 0 Calma 4 Este 0 -- -- 72
2019-08-18 03:00:00 16.2 0 Calma 4 Este 0 -- -- 67
2019-08-18 02:00:00 17.4 3 Este 7 Oeste 0 -- -- 66
2019-08-18 01:00:00 18 0 Calma 4 Sudoeste 0 -- -- 58
2019-08-18 00:00:00 20 3 Oeste 8 Noroeste 0 -- -- 51
2019-08-17 23:00:00 23.5 3 Oeste 22 Nordeste 0 -- -- 44
2019-08-17 22:00:00 24.3 0 Calma 12 Oeste 0 -- -- 30
2019-08-17 21:00:00 29.1 6 Oeste 24 Oeste 0 -- -- 23
2019-08-17 20:00:00 31.8 9 Sudoeste 28 Oeste 0 -- -- 21
2019-08-17 19:00:00 32.7 13 Oeste 36 Sudoeste 0 -- -- 21
2019-08-17 18:00:00 33.8 14 Oeste 35 Sudoeste 0 -- -- 21
2019-08-17 17:00:00 33.4 12 Oeste 33 Oeste 0 -- -- 22
2019-08-17 16:00:00 33.9 19 Oeste 36 Oeste 0 -- -- 20
2019-08-17 15:00:00 33.6 17 Oeste 43 Sudoeste 0 -- -- 23
2019-08-17 14:00:00 32.8 15 Oeste 44 Oeste 0 -- -- 24
2019-08-17 13:00:00 32.1 15 Oeste 35 Oeste 0 -- -- 27
2019-08-17 12:00:00 30.8 13 Oeste 29 Oeste 0 -- -- 29
2019-08-17 11:00:00 27.2 12 Oeste 17 Oeste 0 -- -- 39
2019-08-17 10:00:00 21.4 2 Sudoeste 5 Sudoeste 0 -- -- 64
2019-08-17 09:00:00 16.9 0 Calma 3 Este 0 -- -- 80
2019-08-17 08:00:00 12.9 2 Este 5 Nordeste 0 -- -- 88
2019-08-17 07:00:00 13.4 2 Este 6 Este 0 -- -- 88
2019-08-17 06:00:00 13.8 2 Sur 5 Nordeste 0 -- -- 86
2019-08-17 05:00:00 14.6 0 Calma 9 Noroeste 0 -- -- 84
2019-08-17 04:00:00 15 0 Calma 4 Este 0 -- -- 82
2019-08-17 03:00:00 16.2 0 Calma 5 Este 0 -- -- 78
2019-08-17 02:00:00 17.4 0 Calma 8 Noroeste 0 -- -- 77
2019-08-17 01:00:00 19.6 4 Oeste 10 Noroeste 0 -- -- 72
2019-08-17 00:00:00 21 6 Noroeste 14 Sudeste 0 -- -- 72
2019-08-16 23:00:00 22.2 8 Este 16 Nordeste 0 -- -- 64
2019-08-16 22:00:00 25.2 6 Oeste 16 Oeste 0 -- -- 43
2019-08-16 21:00:00 28.4 9 Oeste 24 Oeste 0 -- -- 26
2019-08-16 20:00:00 31.1 13 Oeste 28 Oeste 0 -- -- 24
2019-08-16 19:00:00 32 14 Oeste 33 Oeste 0 -- -- 24
2019-08-16 18:00:00 32.5 17 Oeste 36 Oeste 0 -- -- 24
2019-08-16 17:00:00 32.3 10 Sudoeste 39 Oeste 0 -- -- 26
2019-08-16 16:00:00 32.6 12 Oeste 31 Oeste 0 -- -- 26
2019-08-16 15:00:00 32 10 Oeste 31 Oeste 0 -- -- 26
2019-08-16 14:00:00 31 13 Oeste 23 Oeste 0 -- -- 27
2019-08-16 13:00:00 29 7 Sudoeste 18 Sudoeste 0 -- -- 35
2019-08-16 12:00:00 26.2 7 Sudeste 17 Sudeste 0 -- -- 42
2019-08-16 11:00:00 23.7 8 Sur 17 Sudeste 0 -- -- 47
2019-08-16 10:00:00 20.6 2 Oeste 5 Oeste 0 -- -- 65
2019-08-16 09:00:00 16.3 0 Calma 3 Oeste 0 -- -- 83
2019-08-16 08:00:00 12.9 0 Calma 3 Este 0 -- -- 90
2019-08-16 07:00:00 13.4 0 Calma 2 Este 0 -- -- 89
2019-08-16 06:00:00 14.1 0 Calma 3 Sudeste 0 -- -- 88
2019-08-16 05:00:00 14.6 0 Calma 2 Norte 0 -- -- 86
2019-08-16 04:00:00 15.4 0 Calma 3 Este 0 -- -- 82
2019-08-16 03:00:00 16.6 0 Calma 4 Este 0 -- -- 80
2019-08-16 02:00:00 18.1 2 Nordeste 9 Este 0 -- -- 80
2019-08-16 01:00:00 18.7 3 Este 8 Oeste 0 -- -- 77
2019-08-16 00:00:00 20.1 4 Oeste 11 Este 0 -- -- 73
2019-08-15 23:00:00 21.5 9 Este 27 Nordeste 0 -- -- 70
2019-08-15 22:00:00 22.2 12 Este 23 Este 0 -- -- 67
2019-08-15 21:00:00 24.4 14 Este 24 Nordeste 0 -- -- 61
2019-08-15 20:00:00 28.1 15 Este 32 Este 0 -- -- 46
2019-08-15 19:00:00 31.7 9 Sudoeste 27 Noroeste 0 -- -- 21
2019-08-15 18:00:00 32.5 10 Oeste 23 Oeste 0 -- -- 21
2019-08-15 17:00:00 31.5 4 Sudoeste 31 Oeste 0 -- -- 22
2019-08-15 16:00:00 33.3 11 Oeste 34 Oeste 0 -- -- 20
2019-08-15 15:00:00 32.4 12 Oeste 35 Oeste 0 -- -- 21
2019-08-15 14:00:00 30.6 7 Nordeste 24 Oeste 0 -- -- 24
2019-08-15 13:00:00 30 11 Sudoeste 24 Sudoeste 0 -- -- 26
2019-08-15 12:00:00 28.2 5 Nordeste 14 Oeste 0 -- -- 25
2019-08-15 11:00:00 25.3 2 Nordeste 6 Sudoeste 0 -- -- 42
2019-08-15 10:00:00 20 0 Calma 3 Sudoeste 0 -- -- 53
2019-08-15 09:00:00 15.5 0 Calma 2 Sur 0 -- -- 67
2019-08-15 08:00:00 10.8 0 Calma 4 Este 0 -- -- 83
2019-08-15 07:00:00 10.7 2 Este 4 Este 0 -- -- 82
2019-08-15 06:00:00 11.2 0 Calma 4 Este 0 -- -- 77
2019-08-15 05:00:00 11.6 2 Este 4 Este 0 -- -- 74
2019-08-15 04:00:00 12.4 0 Calma 5 Este 0 -- -- 68
2019-08-15 03:00:00 13.4 0 Calma 5 Nordeste 0 -- -- 65
2019-08-15 02:00:00 14.2 2 Este 5 Nordeste 0 -- -- 66
2019-08-15 01:00:00 14.8 0 Calma 2 Noroeste 0 -- -- 52
2019-08-15 00:00:00 16.6 0 Calma 3 Oeste 0 -- -- 49
2019-08-14 23:00:00 18.9 0 Calma 6 Este 0 -- -- 43
2019-08-14 22:00:00 21.6 3 Este 10 Este 0 -- -- 36
2019-08-14 21:00:00 25.6 6 Nordeste 14 Nordeste 0 -- -- 26
2019-08-14 20:00:00 28.3 7 Este 17 Nordeste 0 -- -- 24
2019-08-14 19:00:00 29.1 10 Este 31 Este 0 -- -- 24
2019-08-14 18:00:00 30 13 Este 26 Oeste 0 -- -- 24
2019-08-14 17:00:00 32.1 15 Sudoeste 29 Sudoeste 0 -- -- 20
2019-08-14 16:00:00 31.4 14 Oeste 30 Oeste 0 -- -- 20
2019-08-14 15:00:00 30.3 9 Sudoeste 28 Oeste 0 -- -- 23
2019-08-14 14:00:00 29.6 12 Oeste 27 Oeste 0 -- -- 25
2019-08-14 13:00:00 28.4 16 Oeste 32 Noroeste 0 -- -- 25
2019-08-14 12:00:00 26 12 Oeste 22 Oeste 0 -- -- 36
2019-08-14 11:00:00 22.6 7 Oeste 14 Sudoeste 0 -- -- 46
2019-08-14 10:00:00 18.2 2 Noroeste 4 Oeste 0 -- -- 66
2019-08-14 09:00:00 14.9 0 Calma 4 Este 0 -- -- 74
2019-08-14 08:00:00 10.4 0 Calma 3 Nordeste 0 -- -- 80
2019-08-14 07:00:00 11.5 0 Calma 3 Norte 0 -- -- 72
2019-08-14 06:00:00 12.9 0 Calma 4 Oeste 0 -- -- 67
2019-08-14 05:00:00 13.1 0 Calma 5 Sudoeste 0 -- -- 66
2019-08-14 04:00:00 15 0 Calma 3 Oeste 0 -- -- 63
2019-08-14 03:00:00 14.7 0 Calma 4 Sudoeste 0 -- -- 66
2019-08-14 02:00:00 13.8 2 Oeste 3 Oeste 0 -- -- 73
2019-08-14 01:00:00 13.8 2 Oeste 4 Sudoeste 0 -- -- 73
2019-08-14 00:00:00 15.7 0 Calma 4 Este 0 -- -- 74
2019-08-13 23:00:00 17.7 0 Calma 12 Nordeste 0 -- -- 71
2019-08-13 22:00:00 19.7 5 Este 12 Este 0 -- -- 65
2019-08-13 21:00:00 21.9 8 Este 25 Este 0 -- -- 54
2019-08-13 20:00:00 23.5 14 Este 24 Oeste 0 -- -- 47
2019-08-13 19:00:00 26.2 12 Sudoeste 27 Oeste 0 -- -- 31
2019-08-13 18:00:00 25.4 12 Oeste 30 Oeste 0 -- -- 34
2019-08-13 17:00:00 26 17 Oeste 28 Oeste 0 -- -- 35
2019-08-13 16:00:00 23.2 8 Sudeste 29 Sudoeste 0 -- -- 49
2019-08-13 15:00:00 22 9 Sur 21 Sudeste 0 -- -- 51
2019-08-13 14:00:00 21.9 6 Sur 18 Sudoeste 0 -- -- 50
2019-08-13 13:00:00 19.6 4 Sur 15 Este 0 -- -- 59
2019-08-13 12:00:00 18.1 11 Este 20 Este 0 -- -- 61
2019-08-13 11:00:00 16.4 9 Este 16 Este 0 -- -- 62
2019-08-13 10:00:00 14.6 7 Este 15 Este 0 -- -- 57
2019-08-13 09:00:00 13.6 9 Este 16 Este 0 -- -- 58
2019-08-13 08:00:00 13.1 7 Este 14 Nordeste 0 -- -- 60
2019-08-13 07:00:00 12.7 4 Nordeste 12 Este 0 -- -- 62
2019-08-13 06:00:00 12.5 5 Norte 15 Este 0 -- -- 64
2019-08-13 05:00:00 12.7 5 Este 12 Este 0 -- -- 63
2019-08-13 04:00:00 12.4 3 Nordeste 10 Este 0 -- -- 64
2019-08-13 03:00:00 12.4 2 Nordeste 12 Nordeste 0 -- -- 64
2019-08-13 02:00:00 13.4 3 Nordeste 18 Este 0 -- -- 59
2019-08-13 01:00:00 13.8 10 Este 27 Este 0 -- -- 58
2019-08-13 00:00:00 14.6 17 Este 29 Este 0 -- -- 55
2019-08-12 23:00:00 15.4 10 Este 21 Este 0 -- -- 52
2019-08-12 22:00:00 16.3 11 Este 19 Este 0 -- -- 54
2019-08-12 21:00:00 17.4 13 Este 35 Norte 0 -- -- 60
2019-08-12 20:00:00 22.9 13 Nordeste 28 Este 0 -- -- 39
2019-08-12 19:00:00 24.6 14 Este 25 Este 0 -- -- 34
2019-08-12 18:00:00 26.2 11 Este 20 Este 0 -- -- 26
2019-08-12 17:00:00 24.7 10 Este 32 Este 0 -- -- 28
2019-08-12 16:00:00 25.6 10 Este 30 Este 0 -- -- 29
2019-08-12 15:00:00 24.3 9 Este 25 Este 0 -- -- 32
2019-08-12 14:00:00 23.2 13 Este 34 Este 0 -- -- 36
2019-08-12 13:00:00 22.6 18 Este 31 Este 0 -- -- 36
2019-08-12 12:00:00 21.2 15 Este 30 Este 0 -- -- 42
2019-08-12 11:00:00 19.5 18 Este 31 Este 0 -- -- 49
2019-08-12 10:00:00 17.6 19 Este 28 Este 0 -- -- 57
2019-08-12 09:00:00 15.3 8 Nordeste 14 Norte 0 -- -- 66
2019-08-12 08:00:00 10.5 0 Calma 10 Este 0 -- -- 67
2019-08-12 07:00:00 10.4 3 Este 11 Este 0 -- -- 65
2019-08-12 06:00:00 11.8 3 Nordeste 21 Norte 0 -- -- 57
2019-08-12 05:00:00 10.6 0 Calma 5 Nordeste 0 -- -- 57
2019-08-12 04:00:00 11.5 0 Calma 7 Este 0 -- -- 53
2019-08-12 03:00:00 12.4 0 Calma 5 Nordeste 0 -- -- 53
2019-08-12 02:00:00 13.4 3 Este 6 Este 0 -- -- 52
2019-08-12 01:00:00 14.6 3 Este 5 Este 0 -- -- 48
2019-08-12 00:00:00 17 0 Calma 3 Sudoeste 0 -- -- 45
2019-08-11 23:00:00 18.9 3 Nordeste 5 Este 0 -- -- 38
2019-08-11 22:00:00 21.5 3 Noroeste 14 Sudoeste 0 -- -- 34
2019-08-11 21:00:00 24.5 6 Oeste 22 Oeste 0 -- -- 27
2019-08-11 20:00:00 25.7 8 Sudoeste 33 Oeste 0 -- -- 24
2019-08-11 19:00:00 27.3 19 Oeste 35 Oeste 0 -- -- 21
2019-08-11 18:00:00 28.4 15 Sudoeste 36 Sudoeste 0 -- -- 21
2019-08-11 17:00:00 29.6 19 Sudoeste 42 Oeste 0 -- -- 20
2019-08-11 16:00:00 29.7 18 Sudoeste 41 Oeste 0 -- -- 21
2019-08-11 15:00:00 29.3 17 Oeste 36 Oeste 0 -- -- 24
2019-08-11 14:00:00 28.8 17 Oeste 38 Oeste 0 -- -- 26
2019-08-11 13:00:00 28 15 Sudoeste 39 Oeste 0 -- -- 30
2019-08-11 12:00:00 26 16 Oeste 39 Oeste 0 -- -- 36
2019-08-11 11:00:00 23.7 11 Oeste 27 Oeste 0 -- -- 46
2019-08-11 10:00:00 21.1 6 Noroeste 14 Oeste 0 -- -- 71
2019-08-11 09:00:00 17 2 Sudoeste 6 Oeste 0 -- -- 85
2019-08-11 08:00:00 13 0 Calma 6 Oeste 0 -- -- 89
2019-08-11 07:00:00 13.1 0 Calma 4 Este 0 -- -- 86
2019-08-11 06:00:00 13.9 2 Noroeste 6 Oeste 0 -- -- 86
2019-08-11 05:00:00 14.6 2 Norte 4 Este 0 -- -- 83
2019-08-11 04:00:00 15.7 0 Calma 4 Sur 0 -- -- 81
2019-08-11 03:00:00 17.2 0 Calma 4 Oeste 0 -- -- 76
2019-08-11 02:00:00 19.5 0 Calma 13 Este 0 -- -- 71
2019-08-11 01:00:00 20.9 7 Este 15 Nordeste 0 -- -- 70
2019-08-11 00:00:00 21.9 8 Este 15 Este 0 -- -- 73
2019-08-10 23:00:00 23.4 4 Este 15 Este 0 -- -- 63
2019-08-10 22:00:00 23.8 3 Este 11 Oeste 0 -- -- 43
2019-08-10 21:00:00 27.4 9 Oeste 25 Oeste 0 -- -- 34
2019-08-10 20:00:00 29.6 16 Oeste 39 Oeste 0 -- -- 30
2019-08-10 19:00:00 30.7 17 Oeste 39 Oeste 0 -- -- 28
2019-08-10 18:00:00 31.7 15 Sudoeste 45 Oeste 0 -- -- 26
2019-08-10 17:00:00 31.6 11 Sudoeste 45 Oeste 0 -- -- 28
2019-08-10 16:00:00 31.7 14 Oeste 35 Oeste 0 -- -- 27
2019-08-10 15:00:00 30.9 15 Sudoeste 39 Oeste 0 -- -- 32
2019-08-10 14:00:00 30.1 23 Oeste 33 Oeste 0 -- -- 33
2019-08-10 13:00:00 29.2 13 Sudoeste 28 Oeste 0 -- -- 38
2019-08-10 12:00:00 28.1 14 Sudoeste 28 Oeste 0 -- -- 42
2019-08-10 11:00:00 26.6 14 Oeste 33 Oeste 0 -- -- 50
2019-08-10 10:00:00 24 12 Sudoeste 22 Oeste 0 -- -- 59
2019-08-10 09:00:00 17.7 0 Calma 3 Este 0 -- -- 73
2019-08-10 08:00:00 12.2 0 Calma 5 Este 0 -- -- 85
2019-08-10 07:00:00 12.1 0 Calma 4 Este 0 -- -- 81
2019-08-10 06:00:00 12.9 0 Calma 5 Este 0 -- -- 80
2019-08-10 05:00:00 13.6 2 Este 3 Este 0 -- -- 76
2019-08-10 04:00:00 14.9 0 Calma 6 Nordeste 0 -- -- 71
2019-08-10 03:00:00 15.8 0 Calma 5 Este 0 -- -- 70
2019-08-10 02:00:00 17 2 Este 5 Este 0 -- -- 63
2019-08-10 01:00:00 17.9 0 Calma 2 Oeste 0 -- -- 59
2019-08-10 00:00:00 20 2 Este 4 Este 0 -- -- 53
2019-08-09 23:00:00 23.2 2 Oeste 13 Oeste 0 -- -- 44
2019-08-09 22:00:00 25.8 10 Oeste 28 Oeste 0 -- -- 41
2019-08-09 21:00:00 27.7 18 Oeste 33 Oeste 0 -- -- 37
2019-08-09 20:00:00 29.9 18 Oeste 38 Oeste 0 -- -- 32
2019-08-09 19:00:00 31.1 19 Oeste 40 Oeste 0 -- -- 30
2019-08-09 18:00:00 31.7 19 Oeste 40 Oeste 0 -- -- 30
2019-08-09 17:00:00 32.2 22 Oeste 39 Oeste 0 -- -- 28
2019-08-09 16:00:00 32.5 21 Oeste 43 Oeste 0 -- -- 26
2019-08-09 15:00:00 32 20 Oeste 43 Oeste 0 -- -- 27
2019-08-09 14:00:00 31.5 18 Oeste 35 Oeste 0 -- -- 29
2019-08-09 13:00:00 30.1 19 Sudoeste 36 Oeste 0 -- -- 32
2019-08-09 12:00:00 28.7 22 Oeste 37 Oeste 0 -- -- 34
2019-08-09 11:00:00 27.1 21 Oeste 35 Oeste 0 -- -- 39
2019-08-09 10:00:00 22.3 7 Noroeste 13 Oeste 0 -- -- 51
2019-08-09 09:00:00 16.2 2 Oeste 4 Oeste 0 -- -- 65
2019-08-09 08:00:00 10.9 0 Calma 5 Este 0 -- -- 78
2019-08-09 07:00:00 11 3 Este 6 Este 0 -- -- 75
2019-08-09 06:00:00 11.8 3 Este 6 Este 0 -- -- 73
2019-08-09 05:00:00 12.5 3 Este 6 Este 0 -- -- 71
2019-08-09 04:00:00 13.5 0 Calma 4 Este 0 -- -- 67
2019-08-09 03:00:00 14.3 2 Este 4 Este 0 -- -- 65
2019-08-09 02:00:00 15.3 0 Calma 4 Este 0 -- -- 62
2019-08-09 01:00:00 16.9 0 Calma 4 Este 0 -- -- 54
2019-08-09 00:00:00 18.7 0 Calma 6 Este 0 -- -- 52
2019-08-08 23:00:00 21.3 3 Este 7 Sudoeste 0 -- -- 46
2019-08-08 22:00:00 25.5 4 Oeste 16 Oeste 0 -- -- 38
2019-08-08 21:00:00 28 9 Oeste 31 Oeste 0 -- -- 33
2019-08-08 20:00:00 30.2 17 Oeste 35 Oeste 0 -- -- 30
2019-08-08 19:00:00 31.6 20 Oeste 38 Sudoeste 0 -- -- 29
2019-08-08 18:00:00 32.4 17 Oeste 41 Oeste 0 -- -- 28
2019-08-08 17:00:00 32.4 19 Oeste 42 Oeste 0 -- -- 28
2019-08-08 16:00:00 32.2 16 Oeste 37 Oeste 0 -- -- 29
2019-08-08 15:00:00 31.7 17 Oeste 37 Sudoeste 0 -- -- 30
2019-08-08 14:00:00 31.2 13 Oeste 32 Oeste 0 -- -- 30
2019-08-08 13:00:00 30.1 13 Sudoeste 27 Sudoeste 0 -- -- 30
2019-08-08 12:00:00 28.5 14 Sudoeste 27 Oeste 0 -- -- 31
2019-08-08 11:00:00 25.7 13 Oeste 21 Sudoeste 0 -- -- 36
2019-08-08 10:00:00 22.2 3 Sudoeste 5 Oeste 0 -- -- 48
2019-08-08 09:00:00 16.9 0 Calma 4 Este 0 -- -- 61
2019-08-08 08:00:00 11.9 0 Calma 4 Este 0 -- -- 74
2019-08-08 07:00:00 12.1 3 Este 6 Este 0 -- -- 72
2019-08-08 06:00:00 12.3 0 Calma 4 Nordeste 0 -- -- 70
2019-08-08 05:00:00 13 3 Nordeste 6 Nordeste 0 -- -- 68
2019-08-08 04:00:00 13.8 3 Este 5 Este 0 -- -- 64
2019-08-08 03:00:00 15.5 2 Este 5 Nordeste 0 -- -- 58
2019-08-08 02:00:00 18.2 3 Norte 13 Oeste 0 -- -- 53
2019-08-08 01:00:00 19.2 9 Oeste 13 Oeste 0 -- -- 49
2019-08-08 00:00:00 21.7 5 Noroeste 18 Oeste 0 -- -- 41
2019-08-07 23:00:00 23.2 12 Oeste 22 Sudoeste 0 -- -- 37
2019-08-07 22:00:00 23.7 7 Oeste 24 Oeste 0 -- -- 35
2019-08-07 21:00:00 24.9 12 Oeste 44 Oeste 0 -- -- 33
2019-08-07 20:00:00 26.2 17 Oeste 42 Oeste 0 -- -- 28
2019-08-07 19:00:00 27.5 10 Oeste 33 Oeste 0 -- -- 27
2019-08-07 18:00:00 28.4 14 Oeste 32 Oeste 0 -- -- 26
2019-08-07 17:00:00 29.5 15 Oeste 30 Oeste 0 -- -- 25
2019-08-07 16:00:00 31.2 16 Sudoeste 36 Oeste 0 -- -- 22
2019-08-07 15:00:00 29.1 15 Oeste 29 Sudoeste 0 -- -- 25
2019-08-07 14:00:00 28.1 10 Oeste 27 Oeste 0 -- -- 26
2019-08-07 13:00:00 27.2 14 Sudoeste 31 Sudoeste 0 -- -- 25
2019-08-07 12:00:00 26 16 Oeste 31 Oeste 0 -- -- 27
2019-08-07 11:00:00 18.5 0 Calma 3 Sudoeste 0 -- -- 44
2019-08-07 10:00:00 14.5 0 Calma 2 Sudoeste 0 -- -- 48
2019-08-07 09:00:00 11.5 0 Calma 3 Este 0 -- -- 57
2019-08-07 08:00:00 9.6 0 Calma 5 Nordeste 0 -- -- 58
2019-08-07 07:00:00 9.9 2 Este 4 Este 0 -- -- 55
2019-08-07 06:00:00 10.8 0 Calma 4 Nordeste 0 -- -- 49
2019-08-07 05:00:00 11.5 3 Este 5 Este 0 -- -- 46
2019-08-07 04:00:00 11.4 2 Este 4 Este 0 -- -- 47
2019-08-07 03:00:00 12.1 2 Este 4 Este 0 -- -- 42
2019-08-07 02:00:00 13 0 Calma 4 Este 0 -- -- 40
2019-08-07 01:00:00 14.3 2 Este 5 Este 0 -- -- 36
2019-08-07 00:00:00 15.7 0 Calma 6 Este 0 -- -- 29
2019-08-06 23:00:00 18.5 0 Calma 5 Nordeste 0 -- -- 25
2019-08-06 22:00:00 24.1 4 Sudoeste 19 Oeste 0 -- -- 21
2019-08-06 21:00:00 28.3 14 Oeste 40 Oeste 0 -- -- 14
2019-08-06 20:00:00 30.5 12 Sudoeste 32 Oeste 0 -- -- 13
2019-08-06 19:00:00 32.4 14 Oeste 37 Oeste 0 -- -- 15
2019-08-06 18:00:00 33.4 17 Oeste 41 Oeste 0 -- -- 13
2019-08-06 17:00:00 33.4 9 Oeste 32 Sudoeste 0 -- -- 14
2019-08-06 16:00:00 33.8 13 Sudoeste 48 Oeste 0 -- -- 15
2019-08-06 15:00:00 33.6 15 Oeste 32 Oeste 0 -- -- 16
2019-08-06 14:00:00 32.1 13 Oeste 31 Oeste 0 -- -- 19
2019-08-06 13:00:00 31.6 15 Oeste 38 Oeste 0 -- -- 20
2019-08-06 12:00:00 30.5 15 Oeste 32 Oeste 0 -- -- 22
2019-08-06 11:00:00 28.2 13 Oeste 22 Oeste 0 -- -- 34
2019-08-06 10:00:00 22.3 4 Oeste 6 Oeste 0 -- -- 56
2019-08-06 09:00:00 17.8 0 Calma 3 Este 0 -- -- 71
2019-08-06 08:00:00 12.5 2 Este 4 Este 0 -- -- 84
2019-08-06 07:00:00 12.8 3 Este 5 Este 0 -- -- 82
2019-08-06 06:00:00 13.6 3 Este 5 Este 0 -- -- 81
2019-08-06 05:00:00 14.4 0 Calma 5 Este 0 -- -- 73
2019-08-06 04:00:00 15.2 3 Este 5 Este 0 -- -- 76
2019-08-06 03:00:00 15.9 0 Calma 2 Este 0 -- -- 70
2019-08-06 02:00:00 17.1 0 Calma 4 Nordeste 0 -- -- 62
2019-08-06 01:00:00 18.5 0 Calma 5 Nordeste 0 -- -- 60
2019-08-06 00:00:00 20.6 0 Calma 7 Sudoeste 0 -- -- 58
2019-08-05 23:00:00 23.4 4 Oeste 13 Este 0 -- -- 49
2019-08-05 22:00:00 25 2 Oeste 19 Oeste 0 -- -- 24
2019-08-05 21:00:00 29.5 12 Oeste 27 Oeste 0 -- -- 17
2019-08-05 20:00:00 32 13 Sudoeste 26 Oeste 0 -- -- 16
2019-08-05 19:00:00 33.7 15 Oeste 28 Oeste 0 -- -- 16
2019-08-05 18:00:00 33.8 8 Sudoeste 42 Oeste 0 -- -- 16
2019-08-05 17:00:00 34.2 17 Oeste 36 Oeste 0 -- -- 16
2019-08-05 16:00:00 34.4 18 Oeste 41 Oeste 0 -- -- 17
2019-08-05 15:00:00 33.8 17 Oeste 38 Oeste 0 -- -- 20
2019-08-05 14:00:00 33.3 17 Oeste 38 Noroeste 0 -- -- 22
2019-08-05 13:00:00 32.2 19 Oeste 31 Oeste 0 -- -- 23
2019-08-05 12:00:00 31 17 Oeste 30 Sudoeste 0 -- -- 25
2019-08-05 11:00:00 28.2 5 Oeste 10 Oeste 0 -- -- 30
2019-08-05 10:00:00 22.8 2 Sudoeste 4 Oeste 0 -- -- 57
2019-08-05 09:00:00 18.3 0 Calma 4 Nordeste 0 -- -- 68
2019-08-05 08:00:00 12.2 0 Calma 5 Este 0 -- -- 83
2019-08-05 07:00:00 12.1 3 Este 6 Este 0 -- -- 81
2019-08-05 06:00:00 12.4 2 Este 4 Nordeste 0 -- -- 77
2019-08-05 05:00:00 13.2 3 Este 4 Este 0 -- -- 73
2019-08-05 04:00:00 13.9 2 Este 4 Este 0 -- -- 68
2019-08-05 03:00:00 14.7 2 Este 4 Este 0 -- -- 65
2019-08-05 02:00:00 15.7 0 Calma 4 Nordeste 0 -- -- 58
2019-08-05 01:00:00 16.8 0 Calma 3 Oeste 0 -- -- 53
2019-08-05 00:00:00 18.8 0 Calma 14 Este 0 -- -- 45
2019-08-04 23:00:00 22.6 9 Este 17 Este 0 -- -- 49
2019-08-04 22:00:00 22.9 4 Este 8 Este 0 -- -- 31
2019-08-04 21:00:00 28.8 5 Noroeste 25 Oeste 0 -- -- 23
2019-08-04 20:00:00 31.2 14 Sudoeste 30 Oeste 0 -- -- 19
2019-08-04 19:00:00 32.5 12 Oeste 30 Oeste 0 -- -- 20
2019-08-04 18:00:00 33 13 Oeste 40 Oeste 0 -- -- 21
2019-08-04 17:00:00 33.5 14 Oeste 42 Oeste 0 -- -- 21
2019-08-04 16:00:00 33.9 19 Oeste 40 Oeste 0 -- -- 23
2019-08-04 15:00:00 33.4 15 Oeste 36 Oeste 0 -- -- 23
2019-08-04 14:00:00 32.4 17 Oeste 34 Oeste 0 -- -- 25
2019-08-04 13:00:00 32.7 13 Oeste 31 Oeste 0 -- -- 25
2019-08-04 12:00:00 30.9 11 Sudoeste 25 Oeste 0 -- -- 25
2019-08-04 11:00:00 27.4 3 Sudoeste 6 Sur 0 -- -- 33
2019-08-04 10:00:00 22 0 Calma 5 Sudoeste 0 -- -- 65
2019-08-04 09:00:00 17.7 0 Calma 4 Oeste 0 -- -- 76
2019-08-04 08:00:00 13.2 2 Este 5 Este 0 -- -- 86
2019-08-04 07:00:00 13 2 Este 5 Nordeste 0 -- -- 84
2019-08-04 06:00:00 13.6 3 Este 4 Este 0 -- -- 83
2019-08-04 05:00:00 14.2 0 Calma 2 Nordeste 0 -- -- 80
2019-08-04 04:00:00 15 0 Calma 3 Este 0 -- -- 77
2019-08-04 03:00:00 15.9 0 Calma 2 Oeste 0 -- -- 74
2019-08-04 02:00:00 17 0 Calma 4 Este 0 -- -- 73
2019-08-04 01:00:00 18.1 0 Calma 5 Noroeste 0 -- -- 70
2019-08-04 00:00:00 20.3 0 Calma 4 Nordeste 0 -- -- 63
2019-08-03 23:00:00 22.8 2 Nordeste 18 Este 0 -- -- 59
2019-08-03 22:00:00 25.4 5 Este 14 Sudeste 0 -- -- 49
2019-08-03 21:00:00 29.2 4 Oeste 22 Sudoeste 0 -- -- 22
2019-08-03 20:00:00 31.3 13 Sudoeste 41 Sudoeste 0 -- -- 21
2019-08-03 19:00:00 32.5 22 Oeste 38 Oeste 0 -- -- 20
2019-08-03 18:00:00 33.5 17 Sudoeste 44 Oeste 0 -- -- 19
2019-08-03 17:00:00 33.1 12 Sudoeste 33 Oeste 0 -- -- 20
2019-08-03 16:00:00 33.1 10 Oeste 40 Oeste 0 -- -- 23
2019-08-03 15:00:00 31.9 13 Sudoeste 30 Sudoeste 0 -- -- 26
2019-08-03 14:00:00 31 9 Sur 28 Sur 0 -- -- 30
2019-08-03 13:00:00 29.5 8 Sudeste 19 Sudeste 0 -- -- 31
2019-08-03 12:00:00 27.9 5 Sur 18 Sur 0 -- -- 36
2019-08-03 11:00:00 26.2 5 Sur 13 Sudoeste 0 -- -- 41
2019-08-03 10:00:00 22 3 Oeste 6 Sudoeste 0 -- -- 53
2019-08-03 09:00:00 17.2 0 Calma 4 Este 0 -- -- 68
2019-08-03 08:00:00 12 0 Calma 6 Este 0 -- -- 83
2019-08-03 07:00:00 11.8 3 Este 4 Este 0 -- -- 82
2019-08-03 06:00:00 12.4 2 Este 6 Este 0 -- -- 80
2019-08-03 05:00:00 13.1 0 Calma 3 Nordeste 0 -- -- 75
2019-08-03 04:00:00 13.9 2 Este 4 Este 0 -- -- 75
2019-08-03 03:00:00 14.8 3 Este 4 Este 0 -- -- 72
2019-08-03 02:00:00 15.9 0 Calma 6 Este 0 -- -- 68
2019-08-03 01:00:00 17.5 3 Nordeste 14 Este 0 -- -- 64
2019-08-03 00:00:00 19.6 11 Este 18 Este 0 -- -- 59
2019-08-02 23:00:00 21.1 7 Este 14 Este 0 -- -- 54
2019-08-02 22:00:00 24 7 Oeste 15 Sudoeste 0 -- -- 46
2019-08-02 21:00:00 26.9 6 Sudoeste 17 Sur 0 -- -- 40
2019-08-02 20:00:00 29.5 9 Sudeste 26 Sudoeste 0 -- -- 35
2019-08-02 19:00:00 32.5 7 Sudoeste 33 Oeste 0 -- -- 20
2019-08-02 18:00:00 33.4 13 Oeste 30 Oeste 0 -- -- 19
2019-08-02 17:00:00 33.3 18 Oeste 34 Oeste 0 -- -- 18
2019-08-02 16:00:00 33 13 Oeste 31 Oeste 0 -- -- 19
2019-08-02 15:00:00 32.9 17 Oeste 35 Oeste 0 -- -- 21
2019-08-02 14:00:00 32 11 Sudoeste 31 Oeste 0 -- -- 22
2019-08-02 13:00:00 30.5 12 Oeste 30 Oeste 0 -- -- 23
2019-08-02 12:00:00 29.8 12 Sudoeste 25 Sudoeste 0 -- -- 26
2019-08-02 11:00:00 26.4 3 Sudoeste 7 Sudoeste 0 -- -- 35
2019-08-02 10:00:00 21.6 3 Sudoeste 5 Oeste 0 -- -- 52
2019-08-02 09:00:00 16.6 0 Calma 3 Oeste 0 -- -- 61
2019-08-02 08:00:00 11.5 0 Calma 3 Noroeste 0 -- -- 77
2019-08-02 07:00:00 11.2 0 Calma 4 Sudeste 0 -- -- 75
2019-08-02 06:00:00 12 2 Este 4 Este 0 -- -- 70
2019-08-02 05:00:00 12.7 2 Nordeste 4 Nordeste 0 -- -- 69
2019-08-02 04:00:00 13.9 0 Calma 5 Nordeste 0 -- -- 64
2019-08-02 03:00:00 15.3 3 Este 8 Este 0 -- -- 59
2019-08-02 02:00:00 15.4 0 Calma 3 Este 0 -- -- 61
2019-08-02 01:00:00 16 0 Calma 6 Oeste 0 -- -- 54
2019-08-02 00:00:00 17.3 0 Calma 6 Este 0 -- -- 52
2019-08-01 23:00:00 19.8 3 Este 6 Este 0 -- -- 41
2019-08-01 22:00:00 23.9 0 Calma 11 Noroeste 0 -- -- 36
2019-08-01 21:00:00 28 7 Oeste 23 Oeste 0 -- -- 30
2019-08-01 20:00:00 30 14 Oeste 30 Oeste 0 -- -- 27
2019-08-01 19:00:00 30.2 14 Sudoeste 38 Oeste 0 -- -- 26
2019-08-01 18:00:00 31.4 13 Sudoeste 31 Oeste 0 -- -- 27
2019-08-01 17:00:00 32.3 15 Oeste 42 Noroeste 0 -- -- 26
2019-08-01 16:00:00 31.1 14 Oeste 34 Oeste 0 -- -- 30
2019-08-01 15:00:00 30.8 13 Sudoeste 33 Oeste 0 -- -- 32
2019-08-01 14:00:00 30.1 10 Oeste 28 Sudoeste 0 -- -- 34
2019-08-01 13:00:00 27.5 6 Sudoeste 17 Sur 0 -- -- 40
2019-08-01 12:00:00 25 5 Sudeste 18 Sur 0 -- -- 46
2019-08-01 11:00:00 22.4 7 Sur 14 Sur 0 -- -- 54
2019-08-01 10:00:00 19.1 3 Noroeste 13 Sudoeste 0 -- -- 64
2019-08-01 09:00:00 14.9 0 Calma 3 Oeste 0 -- -- 83
2019-08-01 08:00:00 11.1 0 Calma 5 Este 0 -- -- 91
2019-08-01 07:00:00 10.9 0 Calma 4 Sur 0 -- -- 90
2019-08-01 06:00:00 11.4 0 Calma 5 Oeste 0 -- -- 88
2019-08-01 05:00:00 12.5 0 Calma 8 Noroeste 0 -- -- 86
2019-08-01 04:00:00 13.4 3 Sudoeste 11 Oeste 0 -- -- 86
2019-08-01 03:00:00 15.3 0 Calma 22 Este 0 -- -- 79
2019-08-01 02:00:00 15.9 8 Este 15 Este 0 -- -- 85
2019-08-01 01:00:00 16.6 4 Nordeste 15 Este 0 -- -- 85
2019-08-01 00:00:00 17.3 9 Este 20 Este 0 -- -- 84
2019-07-31 23:00:00 18.1 9 Este 16 Nordeste 0 -- -- 80
2019-07-31 22:00:00 19.1 8 Nordeste 16 Este 0 -- -- 74
2019-07-31 21:00:00 20.3 10 Este 17 Este 0 -- -- 71
2019-07-31 20:00:00 21 14 Este 25 Este 0 -- -- 68
2019-07-31 19:00:00 21.5 17 Este 31 Este 0 -- -- 68
2019-07-31 18:00:00 23.3 19 Este 37 Este 0 -- -- 62
2019-07-31 17:00:00 24.6 13 Este 32 Este 0 -- -- 56
2019-07-31 16:00:00 24.5 10 Sudeste 31 Sudeste 0 -- -- 52
2019-07-31 15:00:00 25.9 7 Sur 36 Este 0 -- -- 45
2019-07-31 14:00:00 24.8 14 Sudeste 43 Este 0 -- -- 45
2019-07-31 13:00:00 24.3 11 Este 32 Este 0 -- -- 48
2019-07-31 12:00:00 23.3 15 Este 34 Este 0 -- -- 51
2019-07-31 11:00:00 21.6 13 Este 33 Nordeste 0 -- -- 59
2019-07-31 10:00:00 20.5 14 Este 26 Este 0 -- -- 64
2019-07-31 09:00:00 16.5 4 Oeste 9 Oeste 0 -- -- 73
2019-07-31 08:00:00 12.5 0 Calma 4 Oeste 0 -- -- 76
2019-07-31 07:00:00 10.9 0 Calma 5 Nordeste 0 -- -- 78
2019-07-31 06:00:00 11.5 3 Este 5 Este 0 -- -- 79
2019-07-31 05:00:00 12.3 0 Calma 3 Nordeste 0 -- -- 76
2019-07-31 04:00:00 13.7 0 Calma 3 Oeste 0 -- -- 69
2019-07-31 03:00:00 15.4 0 Calma 9 Nordeste 0 -- -- 63
2019-07-31 02:00:00 17.3 0 Calma 17 Este 0 -- -- 60
2019-07-31 01:00:00 18.2 10 Este 19 Este 0 -- -- 81
2019-07-31 00:00:00 18.6 5 Este 15 Nordeste 0 -- -- 78
2019-07-30 23:00:00 19.6 6 Este 23 Este 0 -- -- 74
2019-07-30 22:00:00 20.6 14 Este 24 Este 0 -- -- 72
2019-07-30 21:00:00 23.7 8 Nordeste 25 Sudoeste 0 -- -- 58
2019-07-30 20:00:00 26.2 8 Sur 23 Sudoeste 0 -- -- 46
2019-07-30 19:00:00 30 14 Oeste 30 Sudoeste 0 -- -- 20
2019-07-30 18:00:00 31.1 16 Oeste 30 Oeste 0 -- -- 19
2019-07-30 17:00:00 31.4 17 Sudoeste 35 Oeste 0 -- -- 20
2019-07-30 16:00:00 31 14 Oeste 42 Oeste 0 -- -- 20
2019-07-30 15:00:00 30.6 17 Sudoeste 36 Sudoeste 0 -- -- 23
2019-07-30 14:00:00 28.5 17 Sudoeste 39 Oeste 0 -- -- 25
2019-07-30 13:00:00 26.1 18 Este 30 Este 0 -- -- 31
2019-07-30 12:00:00 24.8 19 Este 29 Este 0 -- -- 34
2019-07-30 11:00:00 23.7 13 Este 23 Este 0 -- -- 32
2019-07-30 10:00:00 22 13 Este 19 Este 0 -- -- 33
2019-07-30 09:00:00 18.3 7 Este 13 Este 0 -- -- 39
2019-07-30 08:00:00 11.8 3 Este 9 Este 0 -- -- 56
2019-07-30 07:00:00 11.4 5 Este 10 Este 0 -- -- 57
2019-07-30 06:00:00 11.1 3 Este 8 Nordeste 0 -- -- 59
2019-07-30 05:00:00 11.3 3 Este 6 Este 0 -- -- 57
2019-07-30 04:00:00 11.2 0 Calma 5 Este 0 -- -- 58
2019-07-30 03:00:00 12.1 0 Calma 4 Este 0 -- -- 53
2019-07-30 02:00:00 13.5 0 Calma 3 Este 0 -- -- 52
2019-07-30 01:00:00 15.8 0 Calma 6 Nordeste 0 -- -- 43
2019-07-30 00:00:00 17 4 Este 9 Este 0 -- -- 44
2019-07-29 23:00:00 19.4 2 Sudeste 10 Noroeste 0 -- -- 42
2019-07-29 22:00:00 23.9 4 Oeste 10 Noroeste 0 -- -- 33
2019-07-29 21:00:00 27 7 Oeste 22 Oeste 0 -- -- 30
2019-07-29 20:00:00 29.2 16 Oeste 30 Oeste 0 -- -- 26
2019-07-29 19:00:00 29.6 13 Sudoeste 37 Oeste 0 -- -- 26
2019-07-29 18:00:00 30.6 14 Oeste 32 Sudoeste 0 -- -- 27
2019-07-29 17:00:00 30.6 12 Sudoeste 31 Oeste 0 -- -- 27
2019-07-29 16:00:00 30.2 13 Sudoeste 37 Sudoeste 0 -- -- 27
2019-07-29 15:00:00 30.3 15 Sudoeste 32 Oeste 0 -- -- 26
2019-07-29 14:00:00 29.2 18 Oeste 31 Oeste 0 -- -- 30
2019-07-29 13:00:00 28.4 13 Oeste 31 Oeste 0 -- -- 30
2019-07-29 12:00:00 27.2 14 Oeste 41 Sur 0 -- -- 32
2019-07-29 11:00:00 24.6 14 Oeste 24 Oeste 0 -- -- 34
2019-07-29 10:00:00 19.8 3 Oeste 5 Oeste 0 -- -- 48
2019-07-29 09:00:00 15 0 Calma 3 Nordeste 0 -- -- 53
2019-07-29 08:00:00 8.8 0 Calma 4 Este 0 -- -- 72
2019-07-29 07:00:00 8.3 3 Este 4 Este 0 -- -- 69
2019-07-29 06:00:00 8.6 3 Este 5 Este 0 -- -- 67
2019-07-29 05:00:00 9.1 0 Calma 6 Este 0 -- -- 62
2019-07-29 04:00:00 9.6 3 Este 6 Este 0 -- -- 60
2019-07-29 03:00:00 9.9 4 Este 8 Este 0 -- -- 58
2019-07-29 02:00:00 10.9 0 Calma 4 Este 0 -- -- 52
2019-07-29 01:00:00 12 0 Calma 3 Oeste 0 -- -- 47
2019-07-29 00:00:00 13.8 0 Calma 5 Este 0 -- -- 39
2019-07-28 23:00:00 16.2 3 Este 6 Este 0 -- -- 35
2019-07-28 22:00:00 20.7 0 Calma 16 Oeste 0 -- -- 26
2019-07-28 21:00:00 24.7 12 Oeste 25 Oeste 0 -- -- 21
2019-07-28 20:00:00 27.2 10 Sudoeste 30 Oeste 0 -- -- 18
2019-07-28 19:00:00 28.2 13 Sudoeste 27 Sudoeste 0 -- -- 17
2019-07-28 18:00:00 29 11 Oeste 30 Oeste 0 -- -- 18
2019-07-28 17:00:00 27.7 6 Sur 27 Este 0 -- -- 19
2019-07-28 16:00:00 26.5 9 Este 35 Este 0 -- -- 29
2019-07-28 15:00:00 26.7 9 Sudeste 30 Sur 0 -- -- 24
2019-07-28 14:00:00 24.1 14 Este 28 Este 0 -- -- 35
2019-07-28 13:00:00 23.4 18 Este 27 Este 0 -- -- 38
2019-07-28 12:00:00 21.6 3 Norte 16 Oeste 0 -- -- 34
2019-07-28 11:00:00 19 6 Noroeste 19 Oeste 0 -- -- 44
2019-07-28 10:00:00 15.8 4 Sudeste 18 Noroeste 0 -- -- 58
2019-07-28 09:00:00 12.9 4 Noroeste 14 Noroeste 0 -- -- 68
2019-07-28 08:00:00 9.7 2 Norte 12 Este 0 -- -- 79
2019-07-28 07:00:00 9.2 4 Este 13 Este 0 -- -- 80
2019-07-28 06:00:00 9.7 6 Este 15 Este 0 -- -- 79
2019-07-28 05:00:00 11 8 Este 14 Este 0 -- -- 75
2019-07-28 04:00:00 11.7 2 Sur 8 Nordeste 0 -- -- 73
2019-07-28 03:00:00 13.1 6 Este 11 Este 0 -- -- 72
2019-07-28 02:00:00 13.6 2 Nordeste 7 Norte 0 -- -- 72
2019-07-28 01:00:00 14.9 0 Calma 15 Noroeste 0 -- -- 68
2019-07-28 00:00:00 15.8 4 Este 14 Nordeste 0 -- -- 64
2019-07-27 23:00:00 16.8 7 Nordeste 17 Este 0 -- -- 54
2019-07-26 12:00:00 -- -- -- -- -- -- -- -- --
2019-07-26 11:00:00 22.9 5 Sudoeste 17 Oeste 0 -- -- 46
2019-07-26 10:00:00 18.5 4 Noroeste 15 Oeste 0 -- -- 59
2019-07-26 09:00:00 16 6 Oeste 12 Oeste 0 -- -- 66
2019-07-26 08:00:00 14.6 3 Sudeste 5 Este 0 -- -- 70
2019-07-26 07:00:00 13.9 0 Calma 4 Nordeste 0 -- -- 70
2019-07-26 06:00:00 13.6 0 Calma 4 Este 0 -- -- 70
2019-07-26 05:00:00 14.3 2 Este 4 Este 0 -- -- 67
2019-07-26 04:00:00 16.1 0 Calma 5 Noroeste 0 -- -- 61
2019-07-26 03:00:00 17.7 3 Este 6 Este 0 -- -- 58
2019-07-26 02:00:00 19.8 3 Este 10 Este 0 -- -- 52
2019-07-26 01:00:00 20.6 3 Este 14 Este 0 -- -- 49
2019-07-26 00:00:00 20.9 6 Este 18 Nordeste 0 -- -- 51